createdAt,value
2023-07-20T00:04:43.697Z,22.53
2023-07-20T00:07:10.997Z,22.39
2023-07-20T00:09:38.394Z,22.49
2023-07-20T00:12:06.062Z,22.38
2023-07-20T00:14:33.442Z,22.34
2023-07-20T00:17:00.852Z,22.30
2023-07-20T00:19:28.882Z,22.42
2023-07-20T00:21:56.459Z,22.49
2023-07-20T00:24:24.413Z,22.37
2023-07-20T00:26:51.623Z,22.46
2023-07-20T00:29:19.360Z,22.15
2023-07-20T00:31:48.323Z,22.04
2023-07-20T00:34:16.510Z,21.85
2023-07-20T00:36:43.905Z,21.80
2023-07-20T00:39:11.032Z,21.91
2023-07-20T00:41:39.369Z,22.11
2023-07-20T00:44:07.274Z,22.12
2023-07-20T00:46:35.991Z,21.99
2023-07-20T00:49:03.937Z,21.87
2023-07-20T00:51:31.173Z,22.06
2023-07-20T00:53:58.847Z,22.07
2023-07-20T00:56:26.637Z,22.24
2023-07-20T00:58:54.122Z,22.42
2023-07-20T01:01:23.599Z,22.35
2023-07-20T01:03:51.034Z,22.40
2023-07-20T01:06:33.024Z,22.68
2023-07-20T01:09:20.796Z,22.80
2023-07-20T01:12:27.789Z,22.90
2023-07-20T01:14:55.732Z,22.92
2023-07-20T01:17:23.033Z,22.89
2023-07-20T01:19:50.205Z,22.99
2023-07-20T01:22:36.485Z,23.22
2023-07-20T01:25:10.057Z,23.44
2023-07-20T01:27:40.138Z,23.60
2023-07-20T01:30:45.445Z,23.67
2023-07-20T01:33:16.628Z,23.56
2023-07-20T01:35:46.099Z,23.44
2023-07-20T01:38:14.954Z,23.44
2023-07-20T01:40:42.527Z,23.15
2023-07-20T01:43:09.795Z,22.95
2023-07-20T01:45:37.217Z,23.14
2023-07-20T01:48:05.102Z,23.05
2023-07-20T01:50:32.387Z,22.92
2023-07-20T01:53:00.352Z,22.69
2023-07-20T01:55:27.738Z,22.80
2023-07-20T01:57:56.702Z,22.98
2023-07-20T02:00:26.514Z,23.04
2023-07-20T02:02:53.798Z,22.82
2023-07-20T02:05:21.349Z,22.71
2023-07-20T02:07:49.502Z,22.83
2023-07-20T02:10:21.573Z,22.93
2023-07-20T02:12:49.105Z,22.93
2023-07-20T02:15:17.719Z,23.01
2023-07-20T02:17:45.042Z,23.03
2023-07-20T02:20:12.643Z,22.92
2023-07-20T02:22:40.854Z,22.84
2023-07-20T02:25:09.190Z,22.82
2023-07-20T02:27:36.900Z,22.94
2023-07-20T02:30:05.267Z,23.03
2023-07-20T02:32:35.258Z,22.94
2023-07-20T02:35:05.184Z,22.69
2023-07-20T02:37:32.510Z,22.67
2023-07-20T02:39:59.744Z,22.54
2023-07-20T02:42:29.033Z,22.28
2023-07-20T02:44:56.355Z,22.18
2023-07-20T02:47:23.806Z,22.06
2023-07-20T02:49:51.159Z,22.14
2023-07-20T02:52:19.898Z,22.50
2023-07-20T02:54:48.939Z,22.39
2023-07-20T02:57:16.603Z,22.29
2023-07-20T02:59:43.780Z,22.12
2023-07-20T03:02:11.151Z,22.26
2023-07-20T03:04:38.766Z,22.35
2023-07-20T03:07:06.602Z,22.10
2023-07-20T03:09:33.982Z,21.88
2023-07-20T03:12:02.120Z,21.91
2023-07-20T03:14:30.229Z,22.25
2023-07-20T03:16:57.909Z,22.21
2023-07-20T03:19:27.370Z,22.36
2023-07-20T03:21:54.664Z,22.33
2023-07-20T03:24:22.138Z,22.15
2023-07-20T03:26:49.489Z,21.74
2023-07-20T03:29:17.415Z,21.42
2023-07-20T03:31:45.641Z,21.23
2023-07-20T03:34:15.191Z,21.28
2023-07-20T03:36:43.513Z,21.29
2023-07-20T03:39:12.717Z,21.05
2023-07-20T03:41:40.028Z,20.84
2023-07-20T03:44:07.552Z,21.04
2023-07-20T03:46:35.288Z,21.17
2023-07-20T03:49:02.705Z,21.30
2023-07-20T03:51:30.538Z,21.51
2023-07-20T03:53:59.714Z,21.78
2023-07-20T03:56:27.759Z,21.72
2023-07-20T03:58:55.401Z,21.43
2023-07-20T04:01:22.661Z,21.16
2023-07-20T04:03:50.326Z,21.02
2023-07-20T04:06:18.738Z,20.85
2023-07-20T04:08:48.364Z,20.93
2023-07-20T04:11:15.629Z,21.22
2023-07-20T04:13:42.854Z,21.19
2023-07-20T04:16:10.164Z,21.08
2023-07-20T04:18:37.414Z,21.21
2023-07-20T04:21:04.803Z,21.42
2023-07-20T04:23:32.780Z,21.69
2023-07-20T04:26:00.190Z,21.71
2023-07-20T04:28:27.643Z,21.69
2023-07-20T04:30:55.108Z,21.83
2023-07-20T04:33:23.433Z,21.93
2023-07-20T04:35:55.652Z,21.98
2023-07-20T04:38:29.368Z,21.99
2023-07-20T04:41:04.894Z,21.86
2023-07-20T04:43:36.761Z,21.87
2023-07-20T04:46:03.940Z,21.80
2023-07-20T04:48:33.940Z,21.87
2023-07-20T04:51:01.224Z,21.81
2023-07-20T04:53:29.023Z,21.85
2023-07-20T04:55:57.140Z,21.66
2023-07-20T04:58:26.161Z,21.74
2023-07-20T05:00:55.285Z,21.70
2023-07-20T05:03:23.201Z,21.45
2023-07-20T05:05:50.844Z,21.33
2023-07-20T05:08:18.657Z,21.35
2023-07-20T05:10:50.891Z,21.29
2023-07-20T05:13:18.333Z,21.22
2023-07-20T05:15:45.563Z,21.01
2023-07-20T05:18:20.914Z,20.86
2023-07-20T05:20:49.013Z,20.74
2023-07-20T05:23:22.803Z,20.91
2023-07-20T05:25:57.588Z,20.82
2023-07-20T05:28:25.598Z,20.88
2023-07-20T05:30:53.426Z,20.92
2023-07-20T05:33:21.520Z,21.04
2023-07-20T05:35:49.190Z,21.05
2023-07-20T05:38:16.502Z,21.09
2023-07-20T05:40:45.854Z,21.37
2023-07-20T05:43:13.054Z,21.65
2023-07-20T05:45:44.052Z,21.59
2023-07-20T05:48:12.595Z,21.22
2023-07-20T05:50:44.574Z,21.11
2023-07-20T05:53:11.820Z,21.13
2023-07-20T05:55:40.445Z,21.04
2023-07-20T05:58:07.617Z,21.06
2023-07-20T06:00:34.866Z,21.00
2023-07-20T06:03:02.160Z,21.16
2023-07-20T06:05:30.867Z,21.37
2023-07-20T06:07:59.491Z,21.62
2023-07-20T06:10:27.714Z,21.48
2023-07-20T06:12:56.403Z,21.12
2023-07-20T06:15:28.420Z,21.21
2023-07-20T06:17:59.728Z,21.14
2023-07-20T06:20:27.170Z,21.30
2023-07-20T06:22:54.663Z,21.53
2023-07-20T06:25:22.267Z,21.66
2023-07-20T06:27:52.527Z,21.72
2023-07-20T06:30:19.998Z,21.50
2023-07-20T06:32:47.406Z,21.56
2023-07-20T06:35:15.170Z,21.36
2023-07-20T06:37:43.207Z,21.11
2023-07-20T06:45:11.501Z,20.60
2023-07-20T06:47:42.009Z,20.83
2023-07-20T06:50:10.438Z,20.91
2023-07-20T06:52:37.995Z,20.75
2023-07-20T06:55:06.259Z,20.77
2023-07-20T06:57:33.832Z,20.80
2023-07-20T07:00:01.157Z,21.66
2023-07-20T07:02:28.429Z,21.68
2023-07-20T07:07:27.991Z,21.34
2023-07-20T07:09:55.470Z,21.19
2023-07-20T07:12:22.774Z,21.93
2023-07-20T07:14:49.955Z,21.61
2023-07-20T07:17:20.414Z,22.37
2023-07-20T07:19:50.795Z,22.40
2023-07-20T07:22:17.977Z,22.01
2023-07-20T07:24:45.188Z,22.40
2023-07-20T07:27:12.481Z,23.45
2023-07-20T07:29:39.656Z,23.79
2023-07-20T07:32:07.521Z,23.68
2023-07-20T07:34:35.846Z,23.20
2023-07-20T07:37:03.520Z,22.38
2023-07-20T07:42:01.270Z,22.02
2023-07-20T07:44:28.445Z,21.83
2023-07-20T07:46:55.833Z,21.49
2023-07-20T07:49:23.396Z,21.31
2023-07-20T07:51:50.737Z,21.44
2023-07-20T07:54:17.925Z,21.71
2023-07-20T07:56:45.905Z,21.88
2023-07-20T07:59:13.077Z,21.84
2023-07-20T08:01:40.290Z,21.69
2023-07-20T08:04:07.603Z,21.34
2023-07-20T08:06:34.906Z,21.30
2023-07-20T08:09:03.330Z,21.68
2023-07-20T08:11:31.867Z,21.91
2023-07-20T08:13:59.030Z,21.99
2023-07-20T08:16:26.763Z,21.90
2023-07-20T08:18:54.552Z,21.63
2023-07-20T08:21:22.065Z,22.00
2023-07-20T08:23:49.223Z,22.49
2023-07-20T08:26:16.416Z,22.88
2023-07-20T08:28:45.585Z,23.00
2023-07-20T08:31:12.857Z,23.15
2023-07-20T08:33:40.447Z,23.26
2023-07-20T08:36:11.713Z,23.17
2023-07-20T08:38:39.586Z,23.34
2023-07-20T08:41:06.734Z,23.85
2023-07-20T08:43:35.977Z,23.94
2023-07-20T08:46:04.597Z,24.00
2023-07-20T08:48:32.360Z,23.65
2023-07-20T08:51:01.334Z,23.66
2023-07-20T08:53:29.455Z,23.84
2023-07-20T08:55:56.817Z,23.95
2023-07-20T08:58:26.953Z,23.99
2023-07-20T09:00:55.189Z,23.81
2023-07-20T09:03:22.535Z,23.77
2023-07-20T09:05:49.998Z,23.82
2023-07-20T09:08:17.153Z,24.01
2023-07-20T09:10:44.219Z,24.75
2023-07-20T09:13:15.955Z,25.03
2023-07-20T09:15:51.935Z,25.02
2023-07-20T09:18:28.918Z,25.36
2023-07-20T09:21:03.963Z,25.08
2023-07-20T09:23:40.704Z,25.12
2023-07-20T09:26:16.538Z,24.59
2023-07-20T09:28:47.940Z,24.74
2023-07-20T09:31:19.994Z,24.69
2023-07-20T09:36:56.946Z,24.37
2023-07-20T09:39:06.363Z,24.58
2023-07-20T09:41:47.223Z,25.11
2023-07-20T09:51:51.582Z,24.23
2023-07-20T09:54:20.346Z,24.25
2023-07-20T09:56:49.737Z,24.20
2023-07-20T09:59:17.620Z,24.14
2023-07-20T10:01:46.186Z,24.30
2023-07-20T10:04:15.067Z,23.72
2023-07-20T10:06:44.388Z,23.22
2023-07-20T10:09:13.687Z,22.96
2023-07-20T10:12:06.371Z,23.26
2023-07-20T10:14:47.086Z,23.43
2023-07-20T10:17:15.938Z,23.11
2023-07-20T10:19:51.877Z,23.00
2023-07-20T10:22:25.903Z,23.33
2023-07-20T10:24:55.206Z,23.39
2023-07-20T10:27:22.540Z,23.13
2023-07-20T10:29:50.035Z,22.76
2023-07-20T10:32:18.110Z,22.56
2023-07-20T10:34:52.500Z,22.57
2023-07-20T10:37:47.506Z,22.63
2023-07-20T10:40:29.863Z,22.97
2023-07-20T10:43:08.533Z,23.11
2023-07-20T10:45:53.410Z,23.45
2023-07-20T10:48:23.393Z,23.26
2023-07-20T10:51:29.838Z,23.48
2023-07-20T10:53:58.042Z,23.65
2023-07-20T10:56:28.770Z,23.71
2023-07-20T10:59:00.741Z,23.93
2023-07-20T11:01:32.729Z,24.13
2023-07-20T11:04:04.441Z,24.06
2023-07-20T11:06:33.307Z,23.97
2023-07-20T11:09:17.182Z,23.91
2023-07-20T11:11:50.312Z,23.71
2023-07-20T11:14:25.098Z,23.29
2023-07-20T11:16:53.918Z,23.06
2023-07-20T11:22:02.646Z,22.88
2023-07-20T11:24:31.779Z,22.97
2023-07-20T11:26:59.391Z,23.15
2023-07-20T11:31:59.828Z,23.05
2023-07-20T11:34:28.522Z,23.16
2023-07-20T11:39:26.822Z,23.31
2023-07-20T11:41:56.841Z,23.32
2023-07-20T11:44:29.342Z,23.51
2023-07-20T11:47:08.440Z,23.84
2023-07-20T11:49:39.761Z,24.34
2023-07-20T11:52:11.926Z,24.36
2023-07-20T11:54:41.117Z,24.23
2023-07-20T11:57:17.237Z,24.22
2023-07-20T11:59:58.686Z,24.16
2023-07-20T12:02:28.922Z,24.09
2023-07-20T12:04:56.891Z,23.79
2023-07-20T12:07:24.108Z,23.73
2023-07-20T12:10:11.770Z,23.86
2023-07-20T12:12:40.496Z,23.70
2023-07-20T12:15:27.440Z,23.79
2023-07-20T12:17:56.848Z,23.85
2023-07-20T12:20:31.336Z,24.31
2023-07-20T12:23:02.129Z,24.43
2023-07-20T12:25:43.439Z,24.24
2023-07-20T12:28:18.734Z,24.10
2023-07-20T12:30:47.305Z,24.14
2023-07-20T12:33:18.450Z,24.02
2023-07-20T12:35:45.846Z,23.92
2023-07-20T12:38:13.008Z,24.07
2023-07-20T12:40:41.546Z,24.10
2023-07-20T12:43:09.024Z,24.40
2023-07-20T12:45:36.103Z,24.44
2023-07-20T12:48:03.436Z,24.64
2023-07-20T12:50:31.056Z,24.60
2023-07-20T12:52:58.295Z,24.43
2023-07-20T12:55:25.409Z,24.07
2023-07-20T12:57:53.696Z,23.90
2023-07-20T13:00:21.056Z,24.24
2023-07-20T13:02:48.548Z,24.50
2023-07-20T13:05:17.436Z,24.72
2023-07-20T13:10:15.240Z,24.86
2023-07-20T13:12:42.542Z,24.61
2023-07-20T13:15:11.662Z,24.68
2023-07-20T13:17:40.389Z,24.74
2023-07-20T13:20:11.239Z,24.45
2023-07-20T13:22:39.686Z,24.40
2023-07-20T13:25:08.304Z,24.37
2023-07-20T13:30:10.330Z,24.43
2023-07-20T13:32:41.038Z,24.39
2023-07-20T13:35:09.110Z,24.40
2023-07-20T13:37:36.326Z,24.64
2023-07-20T13:40:07.414Z,24.83
2023-07-20T13:42:35.444Z,25.01
2023-07-20T13:45:04.411Z,25.10
2023-07-20T13:47:34.036Z,25.22
2023-07-20T13:50:07.723Z,25.28
2023-07-20T13:55:06.434Z,25.36
2023-07-20T13:57:35.452Z,25.38
2023-07-20T14:00:05.326Z,25.18
2023-07-20T14:07:41.080Z,25.28
2023-07-20T14:12:38.932Z,24.96
2023-07-20T14:15:06.892Z,24.99
2023-07-20T14:17:34.089Z,25.08
2023-07-20T14:20:01.328Z,25.08
2023-07-20T14:22:28.552Z,25.22
2023-07-20T14:24:55.872Z,25.23
2023-07-20T14:27:23.244Z,25.13
2023-07-20T14:29:50.423Z,25.10
2023-07-20T14:32:17.602Z,25.27
2023-07-20T14:37:14.497Z,25.12
2023-07-20T14:39:41.920Z,25.25
2023-07-20T14:42:09.095Z,25.06
2023-07-20T14:44:36.587Z,25.13
2023-07-20T14:47:14.379Z,25.48
2023-07-20T14:49:42.871Z,25.61
2023-07-20T14:54:40.562Z,25.90
2023-07-20T14:57:15.256Z,25.79
2023-07-20T14:59:43.383Z,25.55
2023-07-20T15:02:10.621Z,25.25
2023-07-20T15:04:37.840Z,24.99
2023-07-20T15:07:05.613Z,25.20
2023-07-20T15:09:32.913Z,25.44
2023-07-20T15:12:00.114Z,25.94
2023-07-20T15:14:27.280Z,26.10
2023-07-20T15:16:54.798Z,25.90
2023-07-20T15:19:23.182Z,26.04
2023-07-20T15:21:50.409Z,26.15
2023-07-20T15:24:17.729Z,26.11
2023-07-20T15:26:45.180Z,26.05
2023-07-20T15:29:35.934Z,26.54
2023-07-20T15:32:00.926Z,26.93
2023-07-20T15:34:28.883Z,26.42
2023-07-20T15:36:56.185Z,26.21
2023-07-20T15:39:24.712Z,26.06
2023-07-20T15:41:51.870Z,26.21
2023-07-20T15:44:19.167Z,26.15
2023-07-20T15:46:49.427Z,25.93
2023-07-20T15:49:17.703Z,25.60
2023-07-20T15:51:47.293Z,25.52
2023-07-20T15:54:15.738Z,25.30
2023-07-20T15:56:44.556Z,25.15
2023-07-20T15:59:13.729Z,25.00
2023-07-20T16:01:42.826Z,25.10
2023-07-20T16:04:10.659Z,25.12
2023-07-20T16:06:47.878Z,25.13
2023-07-20T16:09:16.019Z,25.09
2023-07-20T16:11:43.433Z,25.19
2023-07-20T16:14:10.900Z,25.23
2023-07-20T16:16:38.263Z,25.07
2023-07-20T16:19:05.997Z,25.03
2023-07-20T16:21:33.573Z,25.11
2023-07-20T16:24:01.692Z,25.15
2023-07-20T16:26:28.970Z,25.11
2023-07-20T16:31:26.928Z,24.92
2023-07-20T16:34:05.938Z,24.94
2023-07-20T16:36:57.108Z,24.84
2023-07-20T16:44:22.070Z,25.21
2023-07-20T16:49:19.392Z,25.50
2023-07-20T16:51:46.666Z,25.46
2023-07-20T16:54:15.543Z,25.21
2023-07-20T16:56:44.232Z,25.07
2023-07-20T16:59:11.335Z,25.17
2023-07-20T17:01:38.611Z,25.14
2023-07-20T17:04:05.902Z,25.13
2023-07-20T17:06:33.241Z,25.20
2023-07-20T17:09:02.175Z,25.08
2023-07-20T17:11:29.421Z,24.88
2023-07-20T17:13:59.380Z,24.83
2023-07-20T17:16:26.688Z,24.94
2023-07-20T17:18:53.979Z,25.08
2023-07-20T17:21:21.794Z,25.20
2023-07-20T17:28:50.855Z,25.08
2023-07-20T17:31:21.213Z,25.04
2023-07-20T17:33:48.482Z,25.10
2023-07-20T17:38:46.773Z,25.09
2023-07-20T17:41:16.088Z,25.09
2023-07-20T17:43:43.688Z,24.95
2023-07-20T17:48:41.165Z,24.63
2023-07-20T17:51:08.855Z,24.63
2023-07-20T17:53:36.096Z,24.58
2023-07-20T17:56:03.508Z,24.78
2023-07-20T17:58:31.420Z,24.95
2023-07-20T18:00:59.809Z,24.95
2023-07-20T18:03:27.334Z,24.99
2023-07-20T18:05:55.485Z,24.84
2023-07-20T18:08:22.666Z,24.92
2023-07-20T18:10:49.786Z,24.87
2023-07-20T18:13:16.945Z,24.87
2023-07-20T18:15:44.191Z,24.87
2023-07-20T18:18:11.385Z,24.68
2023-07-20T18:20:38.649Z,24.73
2023-07-20T18:23:05.773Z,24.73
2023-07-20T18:25:32.942Z,24.65
2023-07-20T18:28:00.056Z,24.63
2023-07-20T18:30:33.835Z,24.57
2023-07-20T18:33:02.133Z,24.54
2023-07-20T18:35:31.003Z,24.45
2023-07-20T18:37:58.356Z,24.39
2023-07-20T18:40:26.734Z,24.42
2023-07-20T18:42:54.916Z,24.45
2023-07-20T18:45:22.062Z,24.43
2023-07-20T18:47:49.261Z,24.40
2023-07-20T18:50:17.279Z,24.52
2023-07-20T18:52:46.159Z,24.51
2023-07-20T18:55:14.042Z,24.66
2023-07-20T18:57:42.160Z,24.58
2023-07-20T19:00:11.298Z,24.71
2023-07-20T19:02:38.791Z,24.57
2023-07-20T19:05:06.598Z,24.48
2023-07-20T19:07:33.772Z,24.56
2023-07-20T19:10:00.887Z,24.53
2023-07-20T19:12:28.142Z,24.55
2023-07-20T19:14:55.330Z,24.60
2023-07-20T19:17:26.124Z,24.62
2023-07-20T19:19:53.464Z,24.58
2023-07-20T19:22:20.667Z,24.52
2023-07-20T19:24:48.240Z,24.58
2023-07-20T19:27:15.971Z,24.59
2023-07-20T19:29:43.190Z,24.61
2023-07-20T19:32:11.600Z,24.57
2023-07-20T19:34:38.862Z,24.44
2023-07-20T19:37:06.461Z,24.34
2023-07-20T19:39:33.714Z,24.25
2023-07-20T19:42:00.937Z,24.34
2023-07-20T19:44:28.384Z,24.47
2023-07-20T19:46:58.262Z,24.37
2023-07-20T19:49:27.718Z,24.38
2023-07-20T19:51:56.120Z,24.35
2023-07-20T19:56:55.117Z,24.22
2023-07-20T19:59:22.265Z,24.16
2023-07-20T20:01:49.432Z,23.97
2023-07-20T20:06:51.019Z,23.89
2023-07-20T20:09:18.168Z,24.00
2023-07-20T20:11:47.587Z,24.00
2023-07-20T20:14:15.998Z,23.94
2023-07-20T20:16:45.766Z,23.99
2023-07-20T20:19:14.286Z,24.03
2023-07-20T20:21:41.561Z,24.11
2023-07-20T20:24:08.948Z,24.08
2023-07-20T20:26:39.941Z,23.98
2023-07-20T20:29:07.673Z,23.95
2023-07-20T20:31:35.463Z,23.99
2023-07-20T20:34:02.810Z,23.74
2023-07-20T20:36:30.096Z,23.69
2023-07-20T20:38:57.681Z,23.68
2023-07-20T20:41:30.645Z,23.84
2023-07-20T20:43:57.831Z,23.91
2023-07-20T20:46:25.262Z,23.97
2023-07-20T20:48:52.725Z,24.11
2023-07-20T20:51:19.902Z,24.14
2023-07-20T20:53:47.038Z,24.12
2023-07-20T20:56:14.261Z,24.06
2023-07-20T20:58:41.448Z,24.00
2023-07-20T21:01:09.358Z,24.00
2023-07-20T21:03:36.980Z,23.90
2023-07-20T21:06:04.224Z,24.00
2023-07-20T21:08:31.550Z,23.93
2023-07-20T21:10:59.330Z,23.87
2023-07-20T21:13:27.065Z,23.85
2023-07-20T21:15:55.612Z,23.83
2023-07-20T21:18:23.007Z,23.87
2023-07-20T21:20:50.835Z,23.93
2023-07-20T21:23:21.865Z,23.94
2023-07-20T21:25:49.589Z,23.93
2023-07-20T21:28:17.889Z,23.94
2023-07-20T21:30:46.261Z,23.82
2023-07-20T21:33:16.375Z,23.90
2023-07-20T21:35:44.642Z,23.90
2023-07-20T21:38:12.062Z,23.88
2023-07-20T21:40:39.334Z,23.84
2023-07-20T21:43:06.679Z,23.72
2023-07-20T21:45:35.269Z,23.50
2023-07-20T21:48:02.852Z,23.13
2023-07-20T21:50:30.457Z,22.90
2023-07-20T21:52:59.715Z,23.05
2023-07-20T21:55:27.177Z,23.01
2023-07-20T21:57:54.356Z,23.09
2023-07-20T22:00:24.560Z,23.03
2023-07-20T22:02:52.103Z,23.02
2023-07-20T22:05:22.230Z,22.97
2023-07-20T22:07:49.711Z,22.93
2023-07-20T22:10:17.583Z,22.93
2023-07-20T22:12:44.776Z,22.97
2023-07-20T22:15:13.838Z,23.02
2023-07-20T22:17:41.008Z,22.95
2023-07-20T22:20:17.178Z,22.85
2023-07-20T22:22:44.724Z,22.98
2023-07-20T22:25:11.892Z,23.04
2023-07-20T22:27:39.046Z,23.12
2023-07-20T22:30:07.833Z,23.03
2023-07-20T22:32:35.012Z,22.91
2023-07-20T22:35:02.442Z,22.78
2023-07-20T22:37:29.645Z,22.65
2023-07-20T22:39:57.053Z,22.64
2023-07-20T22:42:24.341Z,22.71
2023-07-20T22:44:55.850Z,22.67
2023-07-20T22:47:23.197Z,22.60
2023-07-20T22:49:50.851Z,22.62
2023-07-20T22:52:18.082Z,22.86
2023-07-20T22:54:45.780Z,22.63
2023-07-20T22:57:12.895Z,22.58
2023-07-20T22:59:40.946Z,22.56
2023-07-20T23:02:09.642Z,22.46
2023-07-20T23:04:36.998Z,22.45
2023-07-20T23:07:04.887Z,22.64
2023-07-20T23:09:32.251Z,22.54
2023-07-20T23:12:01.967Z,22.43
2023-07-20T23:14:29.261Z,22.41
2023-07-20T23:16:56.857Z,22.45
2023-07-20T23:19:25.244Z,22.38
2023-07-20T23:21:52.440Z,22.51
2023-07-20T23:24:19.765Z,22.48
2023-07-20T23:26:46.999Z,22.30
2023-07-20T23:29:14.291Z,22.46
2023-07-20T23:31:41.513Z,22.48
2023-07-20T23:34:08.678Z,22.31
2023-07-20T23:36:35.932Z,22.24
2023-07-20T23:39:03.683Z,22.17
2023-07-20T23:41:30.936Z,22.22
2023-07-20T23:43:58.656Z,22.26
2023-07-20T23:46:29.079Z,22.23
2023-07-20T23:48:56.908Z,22.32
2023-07-20T23:51:24.882Z,22.49
2023-07-20T23:53:52.144Z,22.36
2023-07-20T23:56:23.416Z,22.26
2023-07-20T23:58:51.185Z,22.06
